Time;durP1;ratioP1;P1;durP2;ratioP2;P2;SDS_P1;SDS_P2;PMS_P1;PMS_P2;Temp;Humidity;BMP_temperature;BMP_pressure;BME280_temperature;BME280_humidity;BME280_pressure;Samples;Min_cycle;Max_cycle;Signal;HPM_P1;HPM_P2
2022/04/22 00:01:03;;;;;;;;;;;7.50;99.90;;;;;;5102992;28;19924;-68
2022/04/22 00:03:30;;;;;;;;;;;7.50;99.90;;;;;;5103085;28;19920;-67
2022/04/22 00:05:56;;;;;;;;;;;7.50;99.90;;;;;;5102460;28;19920;-68
2022/04/22 00:08:24;;;;;;;;;;;7.50;99.90;;;;;;5102793;28;19920;-68
2022/04/22 00:13:37;;;;;;;;;;;7.40;99.90;;;;;;5080669;28;19948;-68
2022/04/22 00:16:04;;;;;;;;;;;7.30;99.90;;;;;;5106109;28;19920;-68
2022/04/22 00:18:31;;;;;;;;;;;7.30;99.90;;;;;;5106262;28;20234;-68
2022/04/22 00:20:58;;;;;;;;;;;7.30;99.90;;;;;;5106345;28;19926;-68
2022/04/22 00:23:27;;;;;;;;;;;7.20;99.90;;;;;;5106373;28;20138;-68
2022/04/22 00:25:54;;;;;;;;;;;7.20;99.90;;;;;;5106116;28;19920;-68
2022/04/22 00:28:20;;;;;;;;;;;7.20;99.90;;;;;;5106358;28;19920;-67
2022/04/22 00:30:47;;;;;;;;;;;7.20;99.90;;;;;;5106117;28;19926;-68
2022/04/22 00:33:14;;;;;;;;;;;7.10;99.90;;;;;;5106367;28;19920;-68
2022/04/22 00:35:41;;;;;;;;;;;7.10;99.90;;;;;;5105490;28;19927;-67
2022/04/22 00:38:07;;;;;;;;;;;7.10;99.90;;;;;;5106379;28;19920;-68
2022/04/22 00:40:35;;;;;;;;;;;7.10;99.90;;;;;;5106181;28;19927;-68
2022/04/22 00:43:13;;;;;;;;;;;7.00;99.90;;;;;;5106068;28;19927;-68
2022/04/22 00:45:40;;;;;;;;;;;7.00;99.90;;;;;;5105499;28;20214;-67
2022/04/22 00:48:06;;;;;;;;;;;7.00;99.90;;;;;;5106163;28;19919;-68
2022/04/22 00:50:33;;;;;;;;;;;7.00;99.90;;;;;;5105617;28;19931;-67
2022/04/22 00:53:00;;;;;;;;;;;6.90;99.90;;;;;;5105819;28;19920;-67
2022/04/22 00:55:26;;;;;;;;;;;6.90;99.90;;;;;;5105405;28;19920;-68
2022/04/22 00:57:54;;;;;;;;;;;6.80;99.90;;;;;;5105759;28;19930;-67
2022/04/22 01:00:21;;;;;;;;;;;6.80;99.90;;;;;;5105560;28;20078;-68
2022/04/22 01:02:48;;;;;;;;;;;6.80;99.90;;;;;;5105768;28;19920;-67
2022/04/22 01:10:43;;;;;;;;;;;6.80;99.90;;;;;;5130150;22;19928;-71
2022/04/22 01:13:11;;;;;;;;;;;6.70;99.90;;;;;;5105670;28;19943;-68
2022/04/22 01:15:38;;;;;;;;;;;6.70;99.90;;;;;;5105380;28;19926;-68
2022/04/22 01:18:05;;;;;;;;;;;6.80;99.90;;;;;;5105657;28;19920;-68
2022/04/22 01:20:31;;;;;;;;;;;6.80;99.90;;;;;;5105604;28;20005;-69
2022/04/22 01:22:59;;;;;;;;;;;6.80;99.90;;;;;;5105199;28;19936;-68
2022/04/22 01:25:26;;;;;;;;;;;6.70;99.90;;;;;;5104787;28;19928;-69
2022/04/22 01:27:52;;;;;;;;;;;6.70;99.90;;;;;;5105273;28;19927;-68
2022/04/22 01:30:20;;;;;;;;;;;6.70;99.90;;;;;;5105259;28;19920;-70
2022/04/22 01:32:47;;;;;;;;;;;6.70;99.90;;;;;;5105170;28;19927;-71
2022/04/22 01:35:14;;;;;;;;;;;6.60;99.90;;;;;;5104041;28;19920;-71
2022/04/22 01:37:42;;;;;;;;;;;6.60;99.90;;;;;;5104860;28;19920;-68
2022/04/22 01:40:11;;;;;;;;;;;6.60;99.90;;;;;;5104763;28;20203;-70
2022/04/22 01:42:37;;;;;;;;;;;6.60;99.90;;;;;;5105116;28;19926;-68
2022/04/22 01:45:05;;;;;;;;;;;6.60;99.90;;;;;;5105036;28;19942;-68
2022/04/22 01:47:31;;;;;;;;;;;6.60;99.90;;;;;;5104502;28;19927;-71
2022/04/22 01:49:58;;;;;;;;;;;6.60;99.90;;;;;;5104635;28;19960;-68
2022/04/22 01:52:25;;;;;;;;;;;6.50;99.90;;;;;;5104594;28;19920;-68
2022/04/22 01:54:52;;;;;;;;;;;6.50;99.90;;;;;;5104949;28;19926;-71
2022/04/22 01:57:20;;;;;;;;;;;6.50;99.90;;;;;;5104311;28;20226;-68
2022/04/22 01:59:48;;;;;;;;;;;6.50;99.90;;;;;;5104491;28;20229;-68
2022/04/22 02:02:15;;;;;;;;;;;6.50;99.90;;;;;;5104520;28;19920;-68
2022/04/22 02:04:41;;;;;;;;;;;6.40;99.90;;;;;;5104323;28;19921;-68
2022/04/22 02:07:08;;;;;;;;;;;6.40;99.90;;;;;;5104271;28;19994;-68
2022/04/22 02:09:34;;;;;;;;;;;6.40;99.90;;;;;;5104259;28;19926;-69
2022/04/22 02:12:01;;;;;;;;;;;6.40;99.90;;;;;;5104455;28;20195;-68
2022/04/22 02:14:29;;;;;;;;;;;6.40;99.90;;;;;;5104348;28;20204;-68
2022/04/22 02:16:56;;;;;;;;;;;6.30;99.90;;;;;;5104331;28;19954;-68
2022/04/22 02:19:23;;;;;;;;;;;6.30;99.90;;;;;;5103988;28;20088;-68
2022/04/22 02:21:50;;;;;;;;;;;6.30;99.90;;;;;;5104102;28;20150;-68
2022/04/22 02:24:16;;;;;;;;;;;6.30;99.90;;;;;;5104279;28;19920;-71
2022/04/22 02:29:29;;;;;;;;;;;6.40;99.90;;;;;;5104034;28;20269;-68
2022/04/22 02:31:55;;;;;;;;;;;6.30;99.90;;;;;;5103840;28;19924;-71
2022/04/22 02:34:22;;;;;;;;;;;6.30;99.90;;;;;;5102693;28;19927;-68
2022/04/22 02:36:49;;;;;;;;;;;6.30;99.90;;;;;;5103787;28;20123;-69
2022/04/22 02:39:16;;;;;;;;;;;6.30;99.90;;;;;;5103750;28;20444;-68
2022/04/22 02:47:13;;;;;;;;;;;6.20;99.90;;;;;;5103534;28;20157;-70
2022/04/22 02:49:43;;;;;;;;;;;6.10;99.90;;;;;;5103779;28;20123;-70
2022/04/22 02:52:09;;;;;;;;;;;6.10;99.90;;;;;;5103597;28;19959;-70
2022/04/22 02:54:36;;;;;;;;;;;6.20;99.90;;;;;;5103590;28;19927;-70
2022/04/22 02:57:03;;;;;;;;;;;6.20;99.90;;;;;;5103110;28;19920;-70
2022/04/22 02:59:30;;;;;;;;;;;6.20;99.90;;;;;;5103650;28;19928;-70
2022/04/22 03:01:57;;;;;;;;;;;6.10;99.90;;;;;;5103769;28;19920;-70
2022/04/22 03:04:25;;;;;;;;;;;6.10;99.90;;;;;;5103980;28;19932;-70
2022/04/22 03:06:55;;;;;;;;;;;6.10;99.90;;;;;;5103192;28;19924;-70
2022/04/22 03:09:22;;;;;;;;;;;6.00;99.90;;;;;;5103426;28;19987;-70
2022/04/22 03:11:48;;;;;;;;;;;6.00;99.90;;;;;;5103796;28;19936;-70
2022/04/22 03:14:15;;;;;;;;;;;6.10;99.90;;;;;;5103619;28;19926;-70
2022/04/22 03:16:42;;;;;;;;;;;6.00;99.90;;;;;;5103303;28;19927;-70
2022/04/22 03:19:09;;;;;;;;;;;6.00;99.90;;;;;;5103298;28;19956;-70
2022/04/22 03:21:37;;;;;;;;;;;6.00;99.90;;;;;;5103448;28;19920;-70
2022/04/22 03:24:04;;;;;;;;;;;6.00;99.90;;;;;;5103816;28;19920;-70
2022/04/22 03:26:30;;;;;;;;;;;6.00;99.90;;;;;;5103169;28;19920;-71
2022/04/22 03:28:57;;;;;;;;;;;5.90;99.90;;;;;;5103275;28;19920;-71
2022/04/22 03:31:24;;;;;;;;;;;5.90;99.90;;;;;;5103284;28;19927;-70
2022/04/22 03:33:51;;;;;;;;;;;5.90;99.90;;;;;;5103278;28;19920;-70
2022/04/22 03:36:17;;;;;;;;;;;5.90;99.90;;;;;;5102978;28;19920;-71
2022/04/22 03:38:45;;;;;;;;;;;5.90;99.90;;;;;;5103064;28;19966;-70
2022/04/22 03:41:12;;;;;;;;;;;5.90;99.90;;;;;;5103322;28;19926;-70
2022/04/22 03:43:39;;;;;;;;;;;5.90;99.90;;;;;;5103341;28;19969;-70
2022/04/22 03:46:06;;;;;;;;;;;5.90;99.90;;;;;;5106035;28;20282;-70
2022/04/22 03:48:33;;;;;;;;;;;5.90;99.90;;;;;;5107063;28;19920;-68
2022/04/22 03:50:59;;;;;;;;;;;5.90;99.90;;;;;;5107213;28;19920;-71
2022/04/22 03:53:26;;;;;;;;;;;5.90;99.90;;;;;;5107213;28;19920;-70
2022/04/22 03:55:54;;;;;;;;;;;5.90;99.90;;;;;;5106420;28;19920;-70
2022/04/22 03:58:20;;;;;;;;;;;5.90;99.90;;;;;;5106955;28;19927;-70
2022/04/22 04:00:48;;;;;;;;;;;5.80;99.90;;;;;;5106887;28;19947;-70
2022/04/22 04:03:15;;;;;;;;;;;5.80;99.90;;;;;;5106763;28;19951;-68
2022/04/22 04:05:46;;;;;;;;;;;5.80;99.90;;;;;;5106426;28;19920;-70
2022/04/22 04:08:12;;;;;;;;;;;5.80;99.90;;;;;;5106617;28;19935;-70
2022/04/22 04:16:23;;;;;;;;;;;5.80;99.90;;;;;;5105939;28;19969;-70
2022/04/22 04:18:50;;;;;;;;;;;5.80;99.90;;;;;;5106681;28;20088;-70
2022/04/22 04:24:00;;;;;;;;;;;5.90;99.90;;;;;;5106522;28;20123;-71
2022/04/22 04:26:27;;;;;;;;;;;5.90;99.90;;;;;;5105923;28;19920;-70
2022/04/22 04:28:55;;;;;;;;;;;5.90;99.90;;;;;;5106290;28;20115;-71
2022/04/22 04:31:22;;;;;;;;;;;5.80;99.90;;;;;;5106340;28;19962;-71
2022/04/22 04:33:49;;;;;;;;;;;5.80;99.90;;;;;;5106209;28;20123;-70
2022/04/22 04:36:15;;;;;;;;;;;5.80;99.90;;;;;;5105820;28;19981;-70
2022/04/22 04:38:43;;;;;;;;;;;5.80;99.90;;;;;;5106268;28;19920;-71
2022/04/22 04:41:12;;;;;;;;;;;5.80;99.90;;;;;;5106057;28;19927;-70
2022/04/22 04:43:39;;;;;;;;;;;5.80;99.90;;;;;;5106186;28;19951;-70
2022/04/22 04:46:07;;;;;;;;;;;5.80;99.90;;;;;;5105767;28;19920;-70
2022/04/22 04:48:35;;;;;;;;;;;5.80;99.90;;;;;;5106138;28;19928;-70
2022/04/22 04:51:01;;;;;;;;;;;5.90;99.90;;;;;;5105829;28;19943;-70
2022/04/22 04:53:28;;;;;;;;;;;5.80;99.90;;;;;;5106046;28;19920;-70
2022/04/22 04:55:55;;;;;;;;;;;5.80;99.90;;;;;;5105050;28;19920;-70
2022/04/22 04:58:21;;;;;;;;;;;5.80;99.90;;;;;;5106084;28;19920;-70
2022/04/22 05:00:48;;;;;;;;;;;5.90;99.90;;;;;;5105625;28;20208;-70
2022/04/22 05:03:16;;;;;;;;;;;5.90;99.90;;;;;;5105823;28;19924;-70
2022/04/22 05:05:43;;;;;;;;;;;5.90;99.90;;;;;;5105646;28;19920;-70
2022/04/22 05:08:10;;;;;;;;;;;5.90;99.90;;;;;;5105315;28;19924;-70
2022/04/22 05:10:37;;;;;;;;;;;5.90;99.90;;;;;;5105225;28;19960;-71
2022/04/22 05:13:04;;;;;;;;;;;5.90;99.90;;;;;;5105652;28;19920;-70
2022/04/22 05:15:31;;;;;;;;;;;6.00;99.90;;;;;;5105115;28;20204;-70
2022/04/22 05:17:58;;;;;;;;;;;6.00;99.90;;;;;;5104639;28;20207;-70
2022/04/22 05:20:26;;;;;;;;;;;6.00;99.90;;;;;;5105174;28;19987;-70
2022/04/22 05:22:53;;;;;;;;;;;6.10;99.90;;;;;;5105258;28;19927;-70
2022/04/22 05:25:20;;;;;;;;;;;6.10;99.90;;;;;;5105081;28;19921;-68
2022/04/22 05:27:47;;;;;;;;;;;6.20;99.90;;;;;;5105351;28;19927;-71
2022/04/22 05:32:59;;;;;;;;;;;6.30;99.90;;;;;;5105219;28;19955;-71
2022/04/22 05:35:28;;;;;;;;;;;6.30;99.90;;;;;;5104655;28;19928;-71
2022/04/22 05:37:55;;;;;;;;;;;6.40;99.90;;;;;;5105205;28;19920;-68
2022/04/22 05:40:22;;;;;;;;;;;6.50;99.90;;;;;;5104853;28;19927;-69
2022/04/22 05:42:49;;;;;;;;;;;6.50;99.90;;;;;;5104898;28;19927;-69
2022/04/22 05:45:17;;;;;;;;;;;6.60;99.90;;;;;;5104888;28;19927;-68
2022/04/22 05:47:44;;;;;;;;;;;6.70;99.90;;;;;;5104681;28;19920;-71
2022/04/22 05:50:11;;;;;;;;;;;6.60;99.90;;;;;;5104897;28;19943;-69
2022/04/22 05:52:39;;;;;;;;;;;6.70;99.90;;;;;;5104601;28;19987;-68
2022/04/22 05:55:07;;;;;;;;;;;6.80;99.90;;;;;;5104669;28;19958;-71
2022/04/22 05:57:34;;;;;;;;;;;6.80;99.90;;;;;;5104394;28;19920;-71
2022/04/22 06:00:03;;;;;;;;;;;6.80;99.90;;;;;;5104534;28;19920;-71
2022/04/22 06:02:30;;;;;;;;;;;6.80;99.90;;;;;;5104447;28;19965;-71
2022/04/22 06:04:57;;;;;;;;;;;7.00;99.90;;;;;;5101409;28;19920;-69
2022/04/22 06:07:23;;;;;;;;;;;7.00;99.90;;;;;;5082847;28;20234;-69
2022/04/22 06:12:36;;;;;;;;;;;7.10;99.90;;;;;;5083952;28;19966;-68
2022/04/22 06:15:04;;;;;;;;;;;7.20;99.90;;;;;;5083491;28;20248;-68
2022/04/22 06:17:31;;;;;;;;;;;7.20;99.90;;;;;;5083370;28;19956;-71
2022/04/22 06:19:58;;;;;;;;;;;7.30;99.90;;;;;;5083483;28;19928;-69
2022/04/22 06:22:26;;;;;;;;;;;7.30;99.90;;;;;;5082068;28;19927;-71
2022/04/22 06:24:54;;;;;;;;;;;7.40;99.90;;;;;;5083966;28;20120;-71
2022/04/22 06:27:24;;;;;;;;;;;7.40;99.90;;;;;;5083329;28;19920;-69
2022/04/22 06:29:51;;;;;;;;;;;7.60;99.90;;;;;;5083706;28;19920;-69
2022/04/22 06:32:18;;;;;;;;;;;7.60;99.90;;;;;;5083143;28;19920;-71
2022/04/22 06:34:45;;;;;;;;;;;7.60;99.90;;;;;;5083515;28;19928;-69
2022/04/22 06:37:12;;;;;;;;;;;7.60;99.90;;;;;;5083336;28;19920;-70
2022/04/22 06:47:50;;;;;;;;;;;7.80;99.90;;;;;;5083456;28;19966;-69
2022/04/22 06:50:19;;;;;;;;;;;7.90;99.90;;;;;;5082127;28;19920;-69
2022/04/22 06:52:46;;;;;;;;;;;8.00;99.90;;;;;;5083701;28;20176;-72
2022/04/22 06:55:14;;;;;;;;;;;8.00;99.90;;;;;;5083525;28;19927;-69
2022/04/22 06:57:45;;;;;;;;;;;8.10;99.90;;;;;;5083676;28;19920;-69
2022/04/22 07:00:12;;;;;;;;;;;8.10;99.90;;;;;;5082162;28;19920;-69
2022/04/22 07:02:39;;;;;;;;;;;8.20;99.90;;;;;;5083261;28;20122;-69
2022/04/22 07:05:15;;;;;;;;;;;8.20;99.90;;;;;;5083455;28;20003;-71
2022/04/22 07:07:41;;;;;;;;;;;8.30;99.90;;;;;;5091476;28;20138;-71
2022/04/22 07:10:08;;;;;;;;;;;8.30;99.90;;;;;;5119908;22;20261;-67
2022/04/22 07:12:35;;;;;;;;;;;8.30;99.90;;;;;;5124022;28;20178;-67
2022/04/22 07:15:04;;;;;;;;;;;8.40;99.90;;;;;;5123502;28;19926;-67
2022/04/22 07:17:32;;;;;;;;;;;8.50;99.90;;;;;;5123678;28;19927;-67
2022/04/22 07:19:59;;;;;;;;;;;8.50;99.90;;;;;;5126709;28;20211;-67
2022/04/22 07:22:27;;;;;;;;;;;8.60;99.90;;;;;;5128244;28;19919;-67
2022/04/22 07:24:54;;;;;;;;;;;8.70;99.90;;;;;;5128154;28;19967;-68
2022/04/22 07:27:22;;;;;;;;;;;8.70;99.90;;;;;;5127612;28;19920;-67
2022/04/22 07:29:49;;;;;;;;;;;8.80;99.90;;;;;;5127942;28;19920;-67
2022/04/22 07:32:18;;;;;;;;;;;8.90;99.90;;;;;;5127765;28;20203;-68
2022/04/22 07:34:45;;;;;;;;;;;8.90;99.90;;;;;;5127573;28;19920;-67
2022/04/22 07:37:12;;;;;;;;;;;9.10;99.90;;;;;;5126773;28;20203;-68
2022/04/22 07:39:39;;;;;;;;;;;9.10;99.90;;;;;;5128105;27;19924;-68
2022/04/22 07:42:07;;;;;;;;;;;9.20;99.90;;;;;;5127774;28;20257;-68
2022/04/22 07:47:20;;;;;;;;;;;9.40;99.90;;;;;;5127165;28;19923;-67
2022/04/22 07:49:47;;;;;;;;;;;9.50;99.90;;;;;;5127382;28;20115;-67
2022/04/22 07:52:14;;;;;;;;;;;9.70;99.90;;;;;;5127902;28;19974;-68
2022/04/22 07:54:40;;;;;;;;;;;9.70;99.90;;;;;;5127360;28;19926;-67
2022/04/22 07:57:07;;;;;;;;;;;9.90;99.90;;;;;;5126995;28;19920;-67
2022/04/22 07:59:34;;;;;;;;;;;10.00;99.90;;;;;;5127347;28;20211;-68
2022/04/22 08:02:00;;;;;;;;;;;10.00;99.90;;;;;;5127160;28;19927;-67
2022/04/22 08:04:29;;;;;;;;;;;10.00;99.90;;;;;;5127051;28;19919;-67
2022/04/22 08:06:55;;;;;;;;;;;10.00;99.90;;;;;;5122711;28;19920;-68
2022/04/22 08:09:22;;;;;;;;;;;10.10;99.90;;;;;;5121373;28;20114;-68
2022/04/22 08:11:48;;;;;;;;;;;10.20;99.90;;;;;;5106688;28;19920;-67
2022/04/22 08:14:15;;;;;;;;;;;10.30;99.90;;;;;;5106671;28;19920;-67
2022/04/22 08:16:42;;;;;;;;;;;10.40;99.90;;;;;;5106342;28;19924;-67
2022/04/22 08:19:08;;;;;;;;;;;10.50;99.90;;;;;;5106723;28;19920;-68
2022/04/22 08:21:36;;;;;;;;;;;10.60;99.90;;;;;;5106320;28;19927;-67
2022/04/22 08:24:03;;;;;;;;;;;10.60;99.90;;;;;;5106283;28;20278;-68
2022/04/22 08:26:32;;;;;;;;;;;10.70;99.90;;;;;;5106412;28;19927;-67
2022/04/22 08:28:58;;;;;;;;;;;10.80;99.90;;;;;;5106304;28;19920;-68
2022/04/22 08:31:25;;;;;;;;;;;10.70;99.90;;;;;;5105539;28;19965;-67
2022/04/22 08:33:55;;;;;;;;;;;10.80;99.90;;;;;;5106153;28;19920;-67
2022/04/22 08:36:22;;;;;;;;;;;10.90;99.90;;;;;;5105809;28;19957;-68
2022/04/22 08:38:50;;;;;;;;;;;11.00;99.90;;;;;;5106152;28;19920;-68
2022/04/22 08:41:17;;;;;;;;;;;11.10;99.90;;;;;;5106173;28;20241;-68
2022/04/22 08:43:44;;;;;;;;;;;11.10;99.90;;;;;;5106741;28;19920;-67
2022/04/22 08:49:58;;;;;;;;;;;11.20;99.90;;;;;;5119340;28;20107;-68
2022/04/22 08:51:44;;;;;;;;;;;11.50;99.90;;;;;;5105730;28;19977;-68
2022/04/22 08:54:13;;;;;;;;;;;11.60;99.90;;;;;;5106206;28;19927;-68
2022/04/22 08:56:40;;;;;;;;;;;11.60;99.90;;;;;;5105457;28;19920;-68
2022/04/22 08:59:07;;;;;;;;;;;11.60;99.90;;;;;;5105599;28;19920;-68
2022/04/22 09:01:33;;;;;;;;;;;11.70;99.90;;;;;;5105248;28;19920;-68
2022/04/22 09:04:00;;;;;;;;;;;11.80;99.90;;;;;;5105381;28;19927;-67
2022/04/22 09:06:27;;;;;;;;;;;11.80;99.90;;;;;;5105488;28;19927;-67
2022/04/22 09:08:55;;;;;;;;;;;11.80;99.90;;;;;;5105909;28;19927;-68
2022/04/22 09:11:23;;;;;;;;;;;12.00;99.90;;;;;;5105369;28;19920;-68
2022/04/22 09:13:50;;;;;;;;;;;12.10;99.90;;;;;;5111403;28;19965;-68
2022/04/22 09:16:19;;;;;;;;;;;12.20;99.90;;;;;;5125704;28;19920;-68
2022/04/22 09:18:46;;;;;;;;;;;12.40;99.90;;;;;;5125584;28;19922;-68
2022/04/22 09:21:16;;;;;;;;;;;12.50;99.90;;;;;;5125771;28;19928;-68
2022/04/22 09:23:43;;;;;;;;;;;12.60;99.90;;;;;;5125731;28;19920;-68
2022/04/22 09:26:18;;;;;;;;;;;12.70;99.90;;;;;;5125329;28;19926;-68
2022/04/22 09:28:57;;;;;;;;;;;12.60;99.90;;;;;;5125308;28;19920;-68
2022/04/22 09:31:24;;;;;;;;;;;12.70;99.90;;;;;;5125687;28;19986;-68
2022/04/22 09:33:50;;;;;;;;;;;12.70;99.90;;;;;;5125475;28;19926;-67
2022/04/22 09:44:52;;;;;;;;;;;13.30;99.90;;;;;;5114756;28;19960;-68
2022/04/22 09:47:19;;;;;;;;;;;13.40;99.90;;;;;;5111436;28;19920;-68
2022/04/22 09:49:46;;;;;;;;;;;13.40;99.90;;;;;;5104430;28;20227;-68
2022/04/22 09:52:13;;;;;;;;;;;13.50;99.90;;;;;;5117747;28;19941;-68
2022/04/22 09:54:40;;;;;;;;;;;13.70;99.90;;;;;;5125233;27;20122;-68
2022/04/22 09:57:07;;;;;;;;;;;13.90;99.90;;;;;;5125027;28;19987;-68
2022/04/22 09:59:35;;;;;;;;;;;13.90;99.90;;;;;;5124974;28;19927;-67
2022/04/22 10:02:04;;;;;;;;;;;14.00;99.90;;;;;;5124855;28;19990;-67
2022/04/22 10:04:31;;;;;;;;;;;14.10;99.90;;;;;;5125314;28;20020;-68
2022/04/22 10:07:00;;;;;;;;;;;14.20;99.90;;;;;;5124687;28;20172;-67
2022/04/22 10:09:27;;;;;;;;;;;14.20;99.90;;;;;;5124931;28;19995;-68
2022/04/22 10:11:55;;;;;;;;;;;14.30;99.90;;;;;;5125266;27;19919;-68
2022/04/22 10:14:28;;;;;;;;;;;14.40;99.90;;;;;;5117274;28;20204;-67
2022/04/22 10:16:55;;;;;;;;;;;14.50;99.90;;;;;;5124524;28;19920;-67
2022/04/22 10:19:23;;;;;;;;;;;14.60;99.90;;;;;;5124629;28;19926;-68
2022/04/22 10:21:50;;;;;;;;;;;14.70;99.90;;;;;;5124980;28;19964;-68
2022/04/22 10:24:19;;;;;;;;;;;14.70;99.90;;;;;;5124903;28;19961;-67
2022/04/22 10:26:46;;;;;;;;;;;14.70;99.90;;;;;;5124654;28;19920;-67
2022/04/22 10:29:13;;;;;;;;;;;14.80;99.90;;;;;;5124080;28;19920;-68
2022/04/22 10:31:40;;;;;;;;;;;14.90;99.90;;;;;;5123524;27;20238;-67
2022/04/22 10:34:07;;;;;;;;;;;15.10;99.90;;;;;;5122397;28;19927;-67
2022/04/22 10:36:36;;;;;;;;;;;15.20;99.90;;;;;;5123914;28;19920;-68
2022/04/22 10:39:02;;;;;;;;;;;15.30;99.90;;;;;;5124306;28;20115;-68
2022/04/22 10:41:30;;;;;;;;;;;15.40;99.90;;;;;;5123963;28;19935;-68
2022/04/22 10:49:35;;;;;;;;;;;15.70;99.90;;;;;;5124390;28;19957;-67
2022/04/22 10:52:10;;;;;;;;;;;15.70;99.90;;;;;;5124042;28;19919;-68
2022/04/22 10:54:55;;;;;;;;;;;15.80;99.90;;;;;;5123672;28;20230;-67
2022/04/22 10:57:23;;;;;;;;;;;15.80;99.90;;;;;;5123812;28;20207;-67
2022/04/22 11:00:04;;;;;;;;;;;15.90;99.90;;;;;;5123801;28;19920;-68
2022/04/22 11:02:32;;;;;;;;;;;16.10;99.90;;;;;;5113968;28;20161;-67
2022/04/22 11:05:19;;;;;;;;;;;16.30;99.90;;;;;;5137835;27;20205;-67
2022/04/22 11:07:53;;;;;;;;;;;16.40;99.90;;;;;;5124089;28;19941;-67
2022/04/22 11:10:20;;;;;;;;;;;16.40;99.90;;;;;;5110433;28;19991;-67
2022/04/22 11:12:51;;;;;;;;;;;16.40;99.90;;;;;;5121531;28;19919;-67
2022/04/22 11:15:33;;;;;;;;;;;16.50;99.90;;;;;;5104724;28;19924;-67
2022/04/22 11:17:59;;;;;;;;;;;16.60;99.90;;;;;;5109107;28;20114;-67
2022/04/22 11:20:26;;;;;;;;;;;16.80;99.90;;;;;;5123961;28;19919;-67
2022/04/22 11:22:58;;;;;;;;;;;17.00;99.90;;;;;;5124031;28;19923;-67
2022/04/22 11:25:25;;;;;;;;;;;17.10;99.90;;;;;;5123802;28;19920;-67
2022/04/22 11:27:54;;;;;;;;;;;17.10;99.90;;;;;;5124039;28;19923;-67
2022/04/22 11:30:21;;;;;;;;;;;17.20;99.90;;;;;;5123771;28;19919;-68
2022/04/22 11:32:49;;;;;;;;;;;17.30;99.90;;;;;;5123616;28;19926;-68
2022/04/22 11:35:27;;;;;;;;;;;17.40;99.90;;;;;;5111224;28;19920;-67
2022/04/22 11:37:58;;;;;;;;;;;17.50;99.90;;;;;;5111716;28;19928;-66
2022/04/22 11:40:25;;;;;;;;;;;17.70;99.90;;;;;;5117112;28;19920;-67
2022/04/22 11:42:54;;;;;;;;;;;17.80;99.90;;;;;;5122355;28;19920;-67
2022/04/22 11:45:21;;;;;;;;;;;17.90;99.90;;;;;;5123335;28;19920;-67
2022/04/22 11:47:48;;;;;;;;;;;18.10;99.90;;;;;;5123206;28;19919;-67
2022/04/22 11:50:19;;;;;;;;;;;18.30;99.90;;;;;;5122388;28;20110;-68
2022/04/22 11:52:51;;;;;;;;;;;18.50;99.90;;;;;;5123685;28;19926;-67
2022/04/22 11:55:20;;;;;;;;;;;18.60;99.90;;;;;;5123165;28;20286;-67
2022/04/22 11:57:48;;;;;;;;;;;18.60;99.90;;;;;;5123058;28;19987;-67
2022/04/22 12:05:44;;;;;;;;;;;18.50;99.90;;;;;;5123977;28;19923;-67
2022/04/22 12:08:13;;;;;;;;;;;18.50;99.90;;;;;;5127166;28;19920;-67
2022/04/22 12:10:43;;;;;;;;;;;18.50;99.90;;;;;;5108355;28;19920;-67
2022/04/22 12:13:12;;;;;;;;;;;18.60;99.90;;;;;;5106448;28;20215;-67
2022/04/22 12:15:45;;;;;;;;;;;18.60;99.90;;;;;;5106482;28;19965;-68
2022/04/22 12:18:28;;;;;;;;;;;18.60;99.90;;;;;;5106439;28;19956;-67
2022/04/22 12:20:55;;;;;;;;;;;18.90;99.90;;;;;;5106408;28;19920;-67
2022/04/22 12:23:22;;;;;;;;;;;19.20;99.90;;;;;;5116671;28;19927;-67
2022/04/22 12:25:56;;;;;;;;;;;19.30;99.90;;;;;;5126660;27;19927;-67
2022/04/22 12:28:24;;;;;;;;;;;19.40;99.90;;;;;;5127116;28;19920;-67
2022/04/22 12:30:50;;;;;;;;;;;19.40;99.70;;;;;;5126660;27;19955;-67
2022/04/22 12:33:17;;;;;;;;;;;19.40;99.70;;;;;;5126622;28;19986;-67
2022/04/22 12:35:45;;;;;;;;;;;19.50;99.60;;;;;;5126468;28;20130;-67
2022/04/22 12:38:12;;;;;;;;;;;19.90;99.90;;;;;;5126222;27;20260;-67
2022/04/22 12:40:47;;;;;;;;;;;20.00;99.50;;;;;;5126498;28;19920;-67
2022/04/22 12:43:27;;;;;;;;;;;19.80;99.20;;;;;;5109683;28;19920;-67
2022/04/22 12:54:15;;;;;;;;;;;19.40;99.20;;;;;;5105796;28;19924;-67
2022/04/22 12:56:42;;;;;;;;;;;19.30;98.60;;;;;;5105551;28;19943;-68
2022/04/22 12:59:09;;;;;;;;;;;19.10;99.60;;;;;;5105498;28;19920;-68
2022/04/22 13:01:37;;;;;;;;;;;19.10;98.90;;;;;;5105412;28;19993;-68
2022/04/22 13:04:04;;;;;;;;;;;19.10;99.10;;;;;;5105837;28;19957;-67
2022/04/22 13:06:38;;;;;;;;;;;19.00;98.30;;;;;;5105765;28;19926;-68
2022/04/22 13:09:05;;;;;;;;;;;18.90;98.80;;;;;;5105534;28;19927;-68
2022/04/22 13:11:31;;;;;;;;;;;19.20;99.60;;;;;;5107130;22;20207;-69
2022/04/22 13:13:58;;;;;;;;;;;19.30;98.40;;;;;;5085279;28;19935;-69
2022/04/22 13:16:26;;;;;;;;;;;19.50;98.20;;;;;;5100982;28;20157;-69
2022/04/22 13:18:53;;;;;;;;;;;19.70;97.80;;;;;;5105279;28;19927;-69
2022/04/22 13:21:19;;;;;;;;;;;20.00;97.70;;;;;;5105333;28;19920;-69
2022/04/22 13:23:46;;;;;;;;;;;20.30;97.70;;;;;;5105331;28;19920;-69
2022/04/22 13:26:14;;;;;;;;;;;20.60;96.30;;;;;;5104162;28;19920;-69
2022/04/22 13:28:40;;;;;;;;;;;20.60;95.80;;;;;;5105017;28;19927;-69
2022/04/22 13:31:07;;;;;;;;;;;20.60;95.50;;;;;;5105277;28;19920;-69
2022/04/22 13:33:35;;;;;;;;;;;20.60;96.30;;;;;;5104940;28;20262;-69
2022/04/22 13:36:02;;;;;;;;;;;20.80;95.70;;;;;;5104048;28;19920;-69
2022/04/22 13:38:29;;;;;;;;;;;20.80;95.10;;;;;;5104983;28;19970;-69
2022/04/22 13:40:56;;;;;;;;;;;20.50;94.60;;;;;;5104781;28;20168;-69
2022/04/22 13:43:23;;;;;;;;;;;20.20;94.50;;;;;;5104734;28;19942;-69
2022/04/22 13:54:05;;;;;;;;;;;19.60;96.70;;;;;;5078578;28;19919;-68
2022/04/22 13:56:32;;;;;;;;;;;19.40;96.50;;;;;;5104355;28;19927;-69
2022/04/22 13:58:58;;;;;;;;;;;19.20;96.70;;;;;;5104569;28;19927;-69
2022/04/22 14:01:25;;;;;;;;;;;19.10;97.40;;;;;;5104517;28;19927;-69
2022/04/22 14:03:53;;;;;;;;;;;18.80;96.60;;;;;;5104403;28;19920;-68
2022/04/22 14:06:19;;;;;;;;;;;18.80;96.90;;;;;;5101132;28;20203;-68
2022/04/22 14:08:46;;;;;;;;;;;18.70;96.10;;;;;;5101024;28;19927;-69
2022/04/22 14:11:14;;;;;;;;;;;18.50;96.40;;;;;;5103703;28;20226;-69
2022/04/22 14:13:41;;;;;;;;;;;18.40;96.60;;;;;;5103351;28;19984;-69
2022/04/22 14:16:08;;;;;;;;;;;18.50;97.00;;;;;;5102519;28;19987;-68
2022/04/22 14:18:36;;;;;;;;;;;18.70;96.90;;;;;;5104532;28;19920;-68
2022/04/22 14:21:04;;;;;;;;;;;18.90;97.30;;;;;;5104158;28;19926;-68
2022/04/22 14:23:31;;;;;;;;;;;19.10;96.70;;;;;;5104596;28;19920;-68
2022/04/22 14:25:58;;;;;;;;;;;18.90;96.80;;;;;;5104124;28;19920;-67
2022/04/22 14:28:25;;;;;;;;;;;18.80;97.10;;;;;;5103759;28;19920;-68
2022/04/22 14:30:53;;;;;;;;;;;18.60;97.30;;;;;;5103583;28;19920;-67
2022/04/22 14:33:20;;;;;;;;;;;18.40;97.30;;;;;;5103939;28;19987;-68
2022/04/22 14:35:47;;;;;;;;;;;18.40;98.30;;;;;;5103608;28;19926;-69
2022/04/22 14:38:15;;;;;;;;;;;18.40;97.50;;;;;;5104262;28;20176;-69
2022/04/22 14:40:41;;;;;;;;;;;18.40;97.00;;;;;;5103815;28;20119;-68
2022/04/22 14:43:08;;;;;;;;;;;18.30;97.50;;;;;;5103775;28;20100;-68
2022/04/22 14:45:34;;;;;;;;;;;18.30;97.70;;;;;;5103333;28;19982;-68
2022/04/22 14:48:01;;;;;;;;;;;18.20;97.70;;;;;;5103966;28;19955;-68
2022/04/22 14:50:28;;;;;;;;;;;18.00;97.80;;;;;;5086566;28;19924;-69
2022/04/22 14:52:56;;;;;;;;;;;17.90;97.90;;;;;;5083472;28;20119;-68
2022/04/22 14:55:24;;;;;;;;;;;18.10;97.90;;;;;;5082975;28;19983;-68
2022/04/22 14:57:51;;;;;;;;;;;18.40;97.10;;;;;;5088902;28;20114;-68
2022/04/22 15:00:18;;;;;;;;;;;18.30;96.60;;;;;;5088902;28;20103;-68
2022/04/22 15:02:44;;;;;;;;;;;18.30;97.20;;;;;;5083313;28;20174;-68
2022/04/22 15:05:11;;;;;;;;;;;18.50;97.60;;;;;;5083046;28;19920;-68
2022/04/22 15:07:37;;;;;;;;;;;18.80;97.00;;;;;;5083270;28;19920;-68
2022/04/22 15:10:05;;;;;;;;;;;19.20;97.70;;;;;;5089035;28;19927;-69
2022/04/22 15:12:33;;;;;;;;;;;19.50;97.50;;;;;;5082674;28;19927;-68
2022/04/22 15:14:59;;;;;;;;;;;19.60;96.40;;;;;;5102694;28;19928;-68
2022/04/22 15:25:31;;;;;;;;;;;19.60;96.00;;;;;;5090097;28;19953;-68
2022/04/22 15:27:59;;;;;;;;;;;19.50;95.90;;;;;;5103180;28;20142;-68
2022/04/22 15:30:41;;;;;;;;;;;19.00;95.60;;;;;;5103319;28;19942;-69
2022/04/22 15:33:07;;;;;;;;;;;18.70;96.20;;;;;;5103190;28;19920;-68
2022/04/22 15:35:34;;;;;;;;;;;18.20;96.40;;;;;;5102524;28;20121;-68
2022/04/22 15:38:00;;;;;;;;;;;17.90;96.90;;;;;;5103589;28;19987;-68
2022/04/22 15:40:27;;;;;;;;;;;17.70;97.60;;;;;;5105463;28;19926;-68
2022/04/22 15:42:54;;;;;;;;;;;17.70;97.60;;;;;;5107210;28;19920;-68
2022/04/22 15:45:22;;;;;;;;;;;17.90;97.20;;;;;;5107216;28;20115;-68
2022/04/22 15:47:49;;;;;;;;;;;18.10;97.00;;;;;;5107310;28;19958;-68
2022/04/22 15:50:16;;;;;;;;;;;18.30;97.10;;;;;;5095897;28;19920;-68
2022/04/22 15:52:42;;;;;;;;;;;18.50;97.20;;;;;;5098862;28;19920;-69
2022/04/22 15:55:10;;;;;;;;;;;18.60;96.80;;;;;;5106896;28;20219;-69